Time;durP1;ratioP1;P1;durP2;ratioP2;P2;SDS_P1;SDS_P2;PMS_P1;PMS_P2;Temp;Humidity;BMP_temperature;BMP_pressure;BME280_temperature;BME280_humidity;BME280_pressure;Samples;Min_cycle;Max_cycle;Signal;HPM_P1;HPM_P2
2022/02/08 00:00:50;;;;;;;;;;;102.80;2227.20;;;;;;5092162;28;19908;-76
2022/02/08 00:03:17;;;;;;;;;;;102.80;2227.20;;;;;;5077384;28;19995;-82
2022/02/08 00:05:47;;;;;;;;;;;102.80;2227.20;;;;;;5094958;28;19908;-81
2022/02/08 00:08:13;;;;;;;;;;;102.80;2227.20;;;;;;5105736;28;19920;-82
2022/02/08 00:10:39;;;;;;;;;;;102.70;2227.20;;;;;;5094554;28;20034;-83
2022/02/08 00:13:05;;;;;;;;;;;102.80;2227.20;;;;;;5110543;28;20364;-78
2022/02/08 00:15:31;;;;;;;;;;;102.70;2227.20;;;;;;5077017;28;20053;-82
2022/02/08 00:17:56;;;;;;;;;;;102.80;2227.20;;;;;;5094650;28;19931;-83
2022/02/08 00:20:22;;;;;;;;;;;102.90;2227.20;;;;;;5094381;28;19908;-82
2022/02/08 00:22:48;;;;;;;;;;;102.80;2227.20;;;;;;5094604;28;19994;-78
2022/02/08 00:25:13;;;;;;;;;;;102.70;2227.20;;;;;;5094791;28;19926;-80
2022/02/08 00:27:39;;;;;;;;;;;102.80;2227.20;;;;;;5076380;28;19922;-81
2022/02/08 00:30:05;;;;;;;;;;;102.90;2227.20;;;;;;5094925;28;20356;-82
2022/02/08 00:32:31;;;;;;;;;;;103.10;2227.20;;;;;;5076882;28;19999;-82
2022/02/08 00:34:57;;;;;;;;;;;103.00;2227.20;;;;;;5076444;28;20343;-78
2022/02/08 00:37:22;;;;;;;;;;;103.00;2227.20;;;;;;5093712;28;19915;-79
2022/02/08 00:39:48;;;;;;;;;;;103.00;2227.20;;;;;;5094135;28;19916;-76
2022/02/08 00:42:13;;;;;;;;;;;103.00;2227.20;;;;;;5076342;28;19923;-78
2022/02/08 00:44:51;;;;;;;;;;;103.20;2227.20;;;;;;5076254;28;19908;-82
2022/02/08 00:47:27;;;;;;;;;;;103.20;2227.20;;;;;;5092689;28;19947;-81
2022/02/08 00:49:53;;;;;;;;;;;103.30;2227.20;;;;;;5073609;28;19916;-81
2022/02/08 00:52:19;;;;;;;;;;;128.00;2252.80;;;;;;5110523;28;20276;-80
2022/02/08 00:54:46;;;;;;;;;;;103.10;2227.20;;;;;;5093503;28;19955;-82
2022/02/08 00:57:12;;;;;;;;;;;103.20;2227.20;;;;;;5076159;28;20276;-78
2022/02/08 00:59:38;;;;;;;;;;;128.10;2252.80;;;;;;5075675;28;19995;-77
2022/02/08 01:02:05;;;;;;;;;;;128.20;2252.80;;;;;;5093817;28;20130;-81
2022/02/08 01:04:30;;;;;;;;;;;128.10;2252.80;;;;;;5076039;28;19991;-83
2022/02/08 01:06:58;;;;;;;;;;;103.30;2227.20;;;;;;5075637;28;20000;-81
2022/02/08 01:09:37;;;;;;;;;;;103.30;2227.20;;;;;;5074995;28;19927;-82
2022/02/08 01:12:03;;;;;;;;;;;103.20;2227.20;;;;;;5092306;28;20264;-80
2022/02/08 01:14:31;;;;;;;;;;;103.10;2227.20;;;;;;5093110;28;19908;-80
2022/02/08 01:16:57;;;;;;;;;;;103.30;2227.20;;;;;;5075963;28;19914;-82
2022/02/08 01:19:23;;;;;;;;;;;103.30;2227.20;;;;;;5093263;28;20010;-77
2022/02/08 01:21:49;;;;;;;;;;;103.10;2227.20;;;;;;5093552;28;20356;-81
2022/02/08 01:24:15;;;;;;;;;;;103.00;2227.20;;;;;;5093382;28;19995;-77
2022/02/08 01:26:48;;;;;;;;;;;102.90;2227.20;;;;;;5075644;28;19951;-82
2022/02/08 01:29:34;;;;;;;;;;;102.80;2227.20;;;;;;5075144;28;20006;-82
2022/02/08 01:32:13;;;;;;;;;;;103.00;2227.20;;;;;;5107315;28;19934;-82
2022/02/08 01:34:54;;;;;;;;;;;103.20;2227.20;;;;;;5073421;28;19915;-78
2022/02/08 01:40:11;;;;;;;;;;;102.90;2227.20;;;;;;5093418;28;19958;-82
2022/02/08 01:50:31;;;;;;;;;;;102.70;2227.20;;;;;;5093487;28;20375;-81
2022/02/08 01:52:57;;;;;;;;;;;102.50;2227.20;;;;;;5074701;28;20383;-77
2022/02/08 01:55:22;;;;;;;;;;;102.50;2227.20;;;;;;5075068;28;19909;-80
2022/02/08 01:57:48;;;;;;;;;;;102.50;2227.20;;;;;;5074960;28;19934;-82
2022/02/08 02:00:15;;;;;;;;;;;102.50;2227.20;;;;;;5074907;28;19908;-79
2022/02/08 02:02:41;;;;;;;;;;;102.50;2227.20;;;;;;5075454;28;19915;-83
2022/02/08 02:05:07;;;;;;;;;;;102.60;2227.20;;;;;;5075081;28;19913;-81
2022/02/08 02:07:34;;;;;;;;;;;102.60;2227.20;;;;;;5074098;28;19920;-82
2022/02/08 02:09:59;;;;;;;;;;;102.50;2227.20;;;;;;5074723;28;20261;-80
2022/02/08 02:12:25;;;;;;;;;;;102.60;2227.20;;;;;;5092760;28;19953;-76
2022/02/08 02:14:51;;;;;;;;;;;102.50;2227.20;;;;;;5092475;28;19916;-82
2022/02/08 02:17:17;;;;;;;;;;;102.40;2227.20;;;;;;5072718;28;19959;-81
2022/02/08 02:19:43;;;;;;;;;;;102.40;2227.20;;;;;;5092605;28;19912;-78
2022/02/08 02:22:09;;;;;;;;;;;102.40;2227.20;;;;;;5074980;28;19919;-81
2022/02/08 02:24:35;;;;;;;;;;;102.40;2227.20;;;;;;5092917;28;19919;-81
2022/02/08 02:27:02;;;;;;;;;;;102.50;2227.20;;;;;;5074738;28;20026;-77
2022/02/08 02:29:29;;;;;;;;;;;102.40;2227.20;;;;;;5074729;28;19916;-76
2022/02/08 02:31:56;;;;;;;;;;;77.70;2227.20;;;;;;5074237;28;19908;-82
2022/02/08 02:34:23;;;;;;;;;;;77.70;2227.20;;;;;;5075130;28;19919;-80
2022/02/08 02:36:49;;;;;;;;;;;77.70;2227.20;;;;;;5074239;28;19934;-76
2022/02/08 02:39:15;;;;;;;;;;;77.70;2227.20;;;;;;5074580;28;20373;-77
2022/02/08 02:41:41;;;;;;;;;;;77.70;2227.20;;;;;;5074562;28;19908;-76
2022/02/08 02:44:08;;;;;;;;;;;77.70;2227.20;;;;;;5092576;28;19908;-82
2022/02/08 02:46:34;;;;;;;;;;;77.70;2227.20;;;;;;5092711;28;20368;-77
2022/02/08 02:49:00;;;;;;;;;;;77.60;2227.20;;;;;;5074625;28;19923;-82
2022/02/08 02:51:26;;;;;;;;;;;77.60;2227.20;;;;;;5092593;28;20022;-76
2022/02/08 02:53:52;;;;;;;;;;;77.60;2227.20;;;;;;5074703;28;20011;-77
2022/02/08 02:56:17;;;;;;;;;;;77.60;2227.20;;;;;;5074461;28;20321;-83
2022/02/08 02:58:43;;;;;;;;;;;77.70;2227.20;;;;;;5074343;28;20003;-82
2022/02/08 03:19:53;;;;;;;;;;;77.60;2227.20;;;;;;5091169;28;20005;-80
2022/02/08 03:22:18;;;;;;;;;;;77.60;2227.20;;;;;;5073943;28;20028;-81
2022/02/08 03:24:44;;;;;;;;;;;77.60;2227.20;;;;;;5073883;28;19908;-83
2022/02/08 03:27:10;;;;;;;;;;;77.60;2227.20;;;;;;5091827;28;19999;-82
2022/02/08 03:29:35;;;;;;;;;;;77.50;2227.20;;;;;;5073995;28;19932;-81
2022/02/08 03:32:01;;;;;;;;;;;77.50;2227.20;;;;;;5075725;28;20367;-76
2022/02/08 03:34:26;;;;;;;;;;;77.40;2227.20;;;;;;5077596;28;19912;-76
2022/02/08 03:36:52;;;;;;;;;;;77.40;2227.20;;;;;;5095258;28;19977;-77
2022/02/08 03:39:23;;;;;;;;;;;77.40;2227.20;;;;;;5077587;28;19942;-81
2022/02/08 03:41:53;;;;;;;;;;;77.40;2227.20;;;;;;5077828;28;19908;-76
2022/02/08 03:44:23;;;;;;;;;;;77.40;2227.20;;;;;;5077366;28;20260;-76
2022/02/08 03:46:48;;;;;;;;;;;77.40;2227.20;;;;;;5077898;28;19908;-82
2022/02/08 03:49:14;;;;;;;;;;;77.40;2227.20;;;;;;5111315;28;19916;-83
2022/02/08 03:51:53;;;;;;;;;;;77.50;2227.20;;;;;;5077429;28;19908;-77
2022/02/08 03:54:19;;;;;;;;;;;77.30;2227.20;;;;;;5077004;28;20372;-77
2022/02/08 03:56:45;;;;;;;;;;;77.40;2227.20;;;;;;5094971;28;19934;-78
2022/02/08 03:59:12;;;;;;;;;;;77.40;2227.20;;;;;;5077663;28;20348;-83
2022/02/08 04:06:54;;;;;;;;;;;77.50;2227.20;;;;;;5093213;28;19923;-76
2022/02/08 04:09:20;;;;;;;;;;;77.30;2227.20;;;;;;5110775;28;19920;-77
2022/02/08 04:12:00;;;;;;;;;;;77.40;2227.20;;;;;;5077142;28;20357;-76
2022/02/08 04:14:46;;;;;;;;;;;77.30;2227.20;;;;;;5089724;28;19909;-82
2022/02/08 04:17:42;;;;;;;;;;;77.30;2227.20;;;;;;5093412;28;20001;-81
2022/02/08 04:36:10;;;;;;;;;;;77.30;2227.20;;;;;;5094582;28;19931;-78
2022/02/08 04:41:14;;;;;;;;;;;77.20;2227.20;;;;;;5091414;28;19915;-83
2022/02/08 04:49:06;;;;;;;;;;;77.40;2227.20;;;;;;5032131;28;19917;-83
2022/02/08 04:51:40;;;;;;;;;;;77.40;2227.20;;;;;;5032422;28;19913;-79
2022/02/08 04:54:14;;;;;;;;;;;77.40;2227.20;;;;;;5029901;28;19916;-79
2022/02/08 05:00:00;;;;;;;;;;;77.40;2227.20;;;;;;5032634;28;19930;-82
2022/02/08 05:34:39;;;;;;;;;;;77.50;2227.20;;;;;;5073741;28;19935;-80
2022/02/08 05:45:24;;;;;;;;;;;77.60;2227.20;;;;;;5072759;28;19947;-76
2022/02/08 05:47:52;;;;;;;;;;;77.60;2227.20;;;;;;5070957;28;19908;-82
2022/02/08 05:53:05;;;;;;;;;;;77.50;2227.20;;;;;;5073087;28;19935;-80
2022/02/08 05:55:34;;;;;;;;;;;77.60;2227.20;;;;;;5054647;28;19909;-76
2022/02/08 05:57:59;;;;;;;;;;;77.60;2227.20;;;;;;5055038;28;19916;-76
2022/02/08 06:00:29;;;;;;;;;;;77.50;2227.20;;;;;;5055059;28;19908;-76
2022/02/08 06:02:56;;;;;;;;;;;77.60;2227.20;;;;;;5055089;28;19913;-82
2022/02/08 06:05:24;;;;;;;;;;;77.60;2227.20;;;;;;5073008;28;20177;-83
2022/02/08 06:07:50;;;;;;;;;;;77.60;2227.20;;;;;;5083866;28;19965;-81
2022/02/08 06:10:15;;;;;;;;;;;77.60;2227.20;;;;;;5075116;28;19912;-84
2022/02/08 06:12:42;;;;;;;;;;;77.50;2227.20;;;;;;5074992;28;19970;-82
2022/02/08 06:15:10;;;;;;;;;;;77.60;2227.20;;;;;;5072424;28;19908;-76
2022/02/08 06:17:35;;;;;;;;;;;77.70;2227.20;;;;;;5074485;28;19954;-83
2022/02/08 06:20:01;;;;;;;;;;;77.70;2227.20;;;;;;5074643;28;20299;-78
2022/02/08 06:22:26;;;;;;;;;;;77.70;2227.20;;;;;;5075046;28;19912;-83
2022/02/08 06:24:52;;;;;;;;;;;77.70;2227.20;;;;;;5089298;28;19912;-76
2022/02/08 06:27:18;;;;;;;;;;;77.70;2227.20;;;;;;5092940;28;19908;-83
2022/02/08 06:29:43;;;;;;;;;;;77.70;2227.20;;;;;;5092564;28;19924;-81
2022/02/08 06:32:09;;;;;;;;;;;102.40;2227.20;;;;;;5092698;28;20309;-80
2022/02/08 06:34:36;;;;;;;;;;;102.40;2227.20;;;;;;5092399;28;19912;-76
2022/02/08 06:37:09;;;;;;;;;;;77.70;2227.20;;;;;;5074990;28;19987;-79
2022/02/08 06:39:36;;;;;;;;;;;77.70;2227.20;;;;;;5072844;28;20426;-83
2022/02/08 06:42:02;;;;;;;;;;;77.70;2227.20;;;;;;5092691;28;19999;-78
2022/02/08 06:44:28;;;;;;;;;;;77.70;2227.20;;;;;;5074485;28;19940;-78
2022/02/08 06:46:53;;;;;;;;;;;77.70;2227.20;;;;;;5092613;28;19908;-82
2022/02/08 06:49:20;;;;;;;;;;;77.60;2227.20;;;;;;5074856;28;19916;-82
2022/02/08 06:51:45;;;;;;;;;;;77.70;2227.20;;;;;;5092568;28;19908;-85
2022/02/08 06:54:11;;;;;;;;;;;102.40;2227.20;;;;;;5092575;28;20010;-85
2022/02/08 06:56:37;;;;;;;;;;;77.70;2227.20;;;;;;5092122;28;19915;-75
2022/02/08 06:59:06;;;;;;;;;;;77.70;2227.20;;;;;;5092128;28;19912;-76
2022/02/08 07:01:33;;;;;;;;;;;77.70;2227.20;;;;;;5071751;28;19967;-77
2022/02/08 07:04:00;;;;;;;;;;;102.40;2227.20;;;;;;5092532;28;19918;-76
2022/02/08 07:06:25;;;;;;;;;;;102.50;2227.20;;;;;;5073004;28;19920;-80
2022/02/08 07:08:51;;;;;;;;;;;102.50;2227.20;;;;;;5057686;28;19955;-85
2022/02/08 07:11:17;;;;;;;;;;;102.50;2227.20;;;;;;5058020;28;19915;-80
2022/02/08 07:13:44;;;;;;;;;;;102.50;2227.20;;;;;;5058108;28;19950;-81
2022/02/08 07:16:13;;;;;;;;;;;102.50;2227.20;;;;;;5076107;28;20000;-83
2022/02/08 07:18:39;;;;;;;;;;;102.60;2227.20;;;;;;5058163;28;19913;-79
2022/02/08 07:21:06;;;;;;;;;;;102.60;2227.20;;;;;;5076590;28;20307;-83
2022/02/08 07:23:31;;;;;;;;;;;102.60;2227.20;;;;;;5076300;28;19943;-85
2022/02/08 07:25:57;;;;;;;;;;;102.70;2227.20;;;;;;5076428;28;20327;-81
2022/02/08 07:28:22;;;;;;;;;;;102.80;2227.20;;;;;;5075798;28;19931;-82
2022/02/08 07:30:48;;;;;;;;;;;102.90;2227.20;;;;;;5075603;28;19912;-82
2022/02/08 07:33:13;;;;;;;;;;;102.80;2227.20;;;;;;5075911;28;19909;-82
2022/02/08 07:38:19;;;;;;;;;;;102.90;2227.20;;;;;;5074433;28;19919;-81
2022/02/08 07:43:18;;;;;;;;;;;102.90;2227.20;;;;;;5075276;28;20343;-81
2022/02/08 07:45:44;;;;;;;;;;;102.90;2227.20;;;;;;5057626;28;19958;-77
2022/02/08 07:48:12;;;;;;;;;;;103.00;2227.20;;;;;;5057196;28;19916;-80
2022/02/08 07:50:40;;;;;;;;;;;103.00;2227.20;;;;;;5070991;28;19966;-76
2022/02/08 07:53:12;;;;;;;;;;;103.00;2227.20;;;;;;5075605;28;19975;-79
2022/02/08 07:55:38;;;;;;;;;;;103.00;2227.20;;;;;;5057779;28;19908;-81
2022/02/08 07:58:03;;;;;;;;;;;103.10;2227.20;;;;;;5075447;28;19916;-80
2022/02/08 08:00:29;;;;;;;;;;;103.10;2227.20;;;;;;5075775;28;20273;-79
2022/02/08 08:02:54;;;;;;;;;;;103.20;2227.20;;;;;;5057249;28;19908;-79
2022/02/08 08:05:20;;;;;;;;;;;103.20;2227.20;;;;;;5075540;28;19909;-80
2022/02/08 08:07:45;;;;;;;;;;;128.00;2252.80;;;;;;5087860;28;19920;-77
2022/02/08 08:10:22;;;;;;;;;;;103.30;2227.20;;;;;;5095007;28;19913;-76
2022/02/08 08:12:51;;;;;;;;;;;128.10;2252.80;;;;;;5077774;28;19908;-84
2022/02/08 08:15:36;;;;;;;;;;;128.00;2252.80;;;;;;5095239;28;20412;-76
2022/02/08 08:18:14;;;;;;;;;;;128.10;2252.80;;;;;;5077177;28;19908;-86
2022/02/08 08:20:40;;;;;;;;;;;128.20;2252.80;;;;;;5077510;28;19908;-81
2022/02/08 08:23:06;;;;;;;;;;;128.20;2252.80;;;;;;5095356;28;19915;-81
2022/02/08 08:25:31;;;;;;;;;;;128.20;2252.80;;;;;;5076649;28;19915;-75
2022/02/08 08:27:57;;;;;;;;;;;128.20;2252.80;;;;;;5076752;28;19994;-82
2022/02/08 08:30:23;;;;;;;;;;;128.20;2252.80;;;;;;5095149;28;19919;-79
2022/02/08 08:32:49;;;;;;;;;;;128.30;2252.80;;;;;;5094538;28;19912;-86
2022/02/08 08:35:20;;;;;;;;;;;128.40;2252.80;;;;;;5077184;28;20366;-84
2022/02/08 08:37:47;;;;;;;;;;;128.40;2252.80;;;;;;5076856;28;20002;-79
2022/02/08 08:41:03;;;;;;;;;;;128.60;2252.80;;;;;;5076788;28;19969;-82
2022/02/08 08:53:24;;;;;;;;;;;128.90;2252.80;;;;;;5094450;28;19919;-82
2022/02/08 08:55:50;;;;;;;;;;;128.90;2252.80;;;;;;5094471;28;19962;-80
2022/02/08 08:58:16;;;;;;;;;;;153.60;2252.80;;;;;;5094585;28;19947;-76
2022/02/08 09:00:41;;;;;;;;;;;153.70;2252.80;;;;;;5094180;28;19916;-79
2022/02/08 09:03:07;;;;;;;;;;;153.80;2252.80;;;;;;5094704;28;19916;-83
2022/02/08 09:05:33;;;;;;;;;;;153.80;2252.80;;;;;;5094575;28;20315;-76
2022/02/08 09:07:58;;;;;;;;;;;153.80;2252.80;;;;;;5093990;28;19920;-83
2022/02/08 09:10:30;;;;;;;;;;;154.00;2252.80;;;;;;5076106;28;19934;-75
2022/02/08 09:18:38;;;;;;;;;;;154.10;2252.80;;;;;;5090785;28;19912;-75
2022/02/08 09:28:55;;;;;;;;;;;154.40;2252.80;;;;;;5031599;28;19924;-82
2022/02/08 09:31:21;;;;;;;;;;;154.50;2252.80;;;;;;5031777;28;19952;-81
2022/02/08 09:33:48;;;;;;;;;;;154.50;2252.80;;;;;;5031681;28;19960;-84
2022/02/08 09:36:14;;;;;;;;;;;179.30;2252.80;;;;;;5015477;28;19910;-79
2022/02/08 09:38:40;;;;;;;;;;;179.40;2252.80;;;;;;5031577;28;19917;-85
2022/02/08 09:41:06;;;;;;;;;;;179.50;2252.80;;;;;;5031787;28;20009;-86
2022/02/08 09:43:32;;;;;;;;;;;179.50;2252.80;;;;;;5031732;28;19909;-86
2022/02/08 09:46:01;;;;;;;;;;;179.70;2252.80;;;;;;5031963;28;19909;-77
2022/02/08 09:48:40;;;;;;;;;;;179.80;2252.80;;;;;;5028724;28;19917;-82
2022/02/08 09:51:05;;;;;;;;;;;180.00;2252.80;;;;;;5031888;28;20035;-86
2022/02/08 09:53:33;;;;;;;;;;;180.10;2252.80;;;;;;5032225;28;19944;-87
2022/02/08 09:55:59;;;;;;;;;;;180.00;2252.80;;;;;;5031610;28;19913;-86
2022/02/08 09:58:25;;;;;;;;;;;180.10;2252.80;;;;;;5031138;28;20349;-85
2022/02/08 10:01:01;;;;;;;;;;;204.90;2227.20;;;;;;5043723;28;19916;-77
2022/02/08 10:03:27;;;;;;;;;;;204.90;2201.60;;;;;;5073192;28;19908;-86
2022/02/08 10:05:53;;;;;;;;;;;204.90;2124.80;;;;;;5073261;28;19913;-81
2022/02/08 10:08:19;;;;;;;;;;;205.00;2124.80;;;;;;5072740;28;20011;-76
2022/02/08 10:10:45;;;;;;;;;;;205.00;2099.20;;;;;;5090869;28;20352;-86
2022/02/08 10:24:04;;;;;;;;;;;205.30;2022.40;;;;;;5093031;28;19920;-77
2022/02/08 10:27:17;;;;;;;;;;;205.40;1996.80;;;;;;5092792;28;19916;-83
2022/02/08 10:29:28;;;;;;;;;;;205.40;1971.20;;;;;;5084004;28;19923;-85
2022/02/08 10:39:58;;;;;;;;;;;230.60;1920.00;;;;;;5090903;28;19923;-82
2022/02/08 10:42:23;;;;;;;;;;;230.70;1894.40;;;;;;5078453;28;20364;-85
2022/02/08 10:44:49;;;;;;;;;;;230.70;1868.80;;;;;;5097500;28;19915;-83
2022/02/08 10:47:14;;;;;;;;;;;230.60;1868.80;;;;;;5112980;28;20321;-82
2022/02/08 10:49:42;;;;;;;;;;;230.70;1817.60;;;;;;5096574;28;20386;-81
2022/02/08 10:52:10;;;;;;;;;;;230.90;1817.60;;;;;;5097309;28;20017;-79
2022/02/08 10:54:44;;;;;;;;;;;230.90;1817.60;;;;;;5097094;28;19916;-75
2022/02/08 10:57:16;;;;;;;;;;;231.10;1817.60;;;;;;5096766;28;19994;-78
2022/02/08 10:59:54;;;;;;;;;;;231.20;1843.20;;;;;;5113029;28;20368;-78
2022/02/08 11:02:28;;;;;;;;;;;256.10;1817.60;;;;;;5096669;28;19915;-86
2022/02/08 11:05:08;;;;;;;;;;;256.20;1766.40;;;;;;5078782;28;19915;-85
2022/02/08 11:12:51;;;;;;;;;;;256.20;1740.80;;;;;;5096852;28;19911;-78
2022/02/08 11:15:31;;;;;;;;;;;256.40;1715.20;;;;;;5078583;28;19992;-79
2022/02/08 11:20:31;;;;;;;;;;;256.80;1689.60;;;;;;5096424;28;19915;-78
2022/02/08 11:23:01;;;;;;;;;;;256.70;1689.60;;;;;;5096132;28;19908;-76
2022/02/08 11:25:38;;;;;;;;;;;256.80;1689.60;;;;;;5078319;28;20016;-83
2022/02/08 11:28:28;;;;;;;;;;;281.60;1689.60;;;;;;5096171;28;19908;-84
2022/02/08 11:45:31;;;;;;;;;;;282.10;1664.00;;;;;;5013927;28;20277;-77
2022/02/08 11:50:36;;;;;;;;;;;282.00;1638.40;;;;;;5013955;28;20306;-84
2022/02/08 12:02:47;;;;;;;;;;;282.20;1587.20;;;;;;5013837;28;20317;-79
2022/02/08 12:04:56;;;;;;;;;;;282.20;1561.60;;;;;;5005166;28;19913;-79
2022/02/08 12:07:22;;;;;;;;;;;307.30;1587.20;;;;;;5004355;28;19984;-81
2022/02/08 12:57:16;;;;;;;;;;;282.30;1484.80;;;;;;4993392;28;20389;-77
2022/02/08 12:59:35;;;;;;;;;;;282.10;1536.00;;;;;;4982415;28;20402;-79
2022/02/08 13:05:20;;;;;;;;;;;282.20;1510.40;;;;;;4993143;28;19960;-78
2022/02/08 14:02:29;;;;;;;;;;;256.50;1536.00;;;;;;5009168;28;20297;-75
2022/02/08 14:05:40;;;;;;;;;;;256.40;1536.00;;;;;;5010717;28;19941;-81
2022/02/08 14:08:12;;;;;;;;;;;256.50;1536.00;;;;;;5010958;28;19944;-78
2022/02/08 14:11:08;;;;;;;;;;;256.50;1536.00;;;;;;4995297;28;19921;-82
2022/02/08 14:24:51;;;;;;;;;;;256.10;1510.40;;;;;;4972457;28;19914;-79
2022/02/08 14:30:05;;;;;;;;;;;256.30;1536.00;;;;;;4972373;28;19960;-82
2022/02/08 14:32:42;;;;;;;;;;;256.10;1536.00;;;;;;4950670;28;19921;-83
2022/02/08 15:10:21;;;;;;;;;;;231.20;1561.60;;;;;;5073177;28;19927;-82
2022/02/08 15:12:55;;;;;;;;;;;231.10;1587.20;;;;;;5054690;28;19908;-79
2022/02/08 15:15:31;;;;;;;;;;;231.00;1587.20;;;;;;5054678;28;19947;-78
2022/02/08 15:17:56;;;;;;;;;;;231.10;1587.20;;;;;;5072510;28;20288;-75
2022/02/08 15:20:24;;;;;;;;;;;231.00;1587.20;;;;;;5072261;28;20015;-77
2022/02/08 15:22:49;;;;;;;;;;;231.10;1612.80;;;;;;5073156;28;19908;-81
2022/02/08 15:25:15;;;;;;;;;;;231.00;1612.80;;;;;;5072394;28;19915;-79
2022/02/08 15:27:43;;;;;;;;;;;231.00;1638.40;;;;;;5055719;28;20018;-82
2022/02/08 15:30:09;;;;;;;;;;;231.00;1638.40;;;;;;5067394;28;19969;-76
2022/02/08 15:32:36;;;;;;;;;;;230.90;1664.00;;;;;;5077938;28;19908;-83
2022/02/08 15:35:02;;;;;;;;;;;231.00;1664.00;;;;;;5077848;28;19953;-82
2022/02/08 15:37:30;;;;;;;;;;;231.00;1689.60;;;;;;5093134;28;19919;-75
2022/02/08 15:40:00;;;;;;;;;;;231.10;1689.60;;;;;;5077420;28;19912;-75
2022/02/08 15:42:30;;;;;;;;;;;231.10;1689.60;;;;;;5077169;28;20438;-77
2022/02/08 15:45:05;;;;;;;;;;;231.30;1664.00;;;;;;5077347;28;20426;-79
2022/02/08 15:47:31;;;;;;;;;;;256.00;1664.00;;;;;;5077206;28;20006;-74
2022/02/08 15:50:01;;;;;;;;;;;256.00;1689.60;;;;;;5095177;28;19999;-76
2022/02/08 15:53:00;;;;;;;;;;;256.00;1689.60;;;;;;5077431;28;20345;-83
2022/02/08 15:55:36;;;;;;;;;;;231.30;1715.20;;;;;;5093684;28;19962;-79
2022/02/08 15:58:21;;;;;;;;;;;231.30;1740.80;;;;;;5094588;28;20425;-82
2022/02/08 16:11:49;;;;;;;;;;;231.10;1843.20;;;;;;5033292;28;20020;-75
2022/02/08 16:27:14;;;;;;;;;;;230.80;1971.20;;;;;;5033609;28;20332;-75
2022/02/08 16:33:04;;;;;;;;;;;230.60;1996.80;;;;;;5033461;28;19909;-80
2022/02/08 16:53:26;;;;;;;;;;;205.60;2124.80;;;;;;5095342;28;20012;-80
2022/02/08 16:56:05;;;;;;;;;;;205.50;2124.80;;;;;;5076733;28;19908;-79
2022/02/08 17:01:07;;;;;;;;;;;205.50;2150.40;;;;;;5094515;28;20367;-79
2022/02/08 17:03:33;;;;;;;;;;;205.50;2150.40;;;;;;5094593;28;20002;-80
2022/02/08 17:05:59;;;;;;;;;;;205.50;2150.40;;;;;;5076349;28;20403;-80
2022/02/08 17:08:26;;;;;;;;;;;205.60;2150.40;;;;;;5076258;28;19920;-76
2022/02/08 17:10:55;;;;;;;;;;;205.50;2150.40;;;;;;5076249;28;19912;-76
2022/02/08 17:13:53;;;;;;;;;;;205.30;2176.00;;;;;;5094641;28;19915;-77
2022/02/08 17:19:44;;;;;;;;;;;205.40;2176.00;;;;;;5031611;28;19941;-75
2022/02/08 17:45:58;;;;;;;;;;;180.10;2252.80;;;;;;5031983;28;19916;-76
2022/02/08 17:48:23;;;;;;;;;;;204.80;2252.80;;;;;;5031685;28;19920;-77
2022/02/08 17:50:49;;;;;;;;;;;204.80;2252.80;;;;;;5031176;28;20012;-76
2022/02/08 17:53:15;;;;;;;;;;;204.80;2252.80;;;;;;5014798;28;19909;-82
2022/02/08 17:55:40;;;;;;;;;;;204.80;2252.80;;;;;;5055333;28;19909;-81
2022/02/08 17:58:06;;;;;;;;;;;204.90;2252.80;;;;;;5075513;28;19931;-81
2022/02/08 18:00:35;;;;;;;;;;;204.90;2252.80;;;;;;5075766;28;19915;-81
2022/02/08 18:03:02;;;;;;;;;;;180.10;2252.80;;;;;;5093577;28;19915;-81
2022/02/08 18:05:28;;;;;;;;;;;180.10;2252.80;;;;;;5093588;28;19912;-75
2022/02/08 18:07:54;;;;;;;;;;;180.10;2252.80;;;;;;5085793;28;19927;-80
2022/02/08 18:10:22;;;;;;;;;;;180.00;2252.80;;;;;;5075259;28;19920;-75
2022/02/08 18:12:54;;;;;;;;;;;180.00;2252.80;;;;;;5092933;28;21322;-81
2022/02/08 18:15:22;;;;;;;;;;;179.90;2252.80;;;;;;5075208;28;20434;-78
2022/02/08 18:17:52;;;;;;;;;;;179.80;2252.80;;;;;;5075485;28;19908;-79
2022/02/08 19:03:42;;;;;;;;;;;179.70;2252.80;;;;;;5096079;28;19915;-75
2022/02/08 19:16:24;;;;;;;;;;;179.80;2252.80;;;;;;5096102;28;20012;-81
2022/02/08 19:19:18;;;;;;;;;;;179.90;2252.80;;;;;;5075721;28;19908;-81
2022/02/08 19:21:46;;;;;;;;;;;179.90;2252.80;;;;;;5077584;28;19957;-82
2022/02/08 19:24:19;;;;;;;;;;;179.90;2252.80;;;;;;5078114;28;19908;-81
2022/02/08 19:26:55;;;;;;;;;;;180.00;2252.80;;;;;;5078711;28;20001;-80
2022/02/08 19:29:21;;;;;;;;;;;180.00;2252.80;;;;;;5078271;28;20057;-81
2022/02/08 19:31:47;;;;;;;;;;;180.00;2252.80;;;;;;5096035;28;19951;-81
2022/02/08 19:34:13;;;;;;;;;;;180.00;2252.80;;;;;;5077870;28;20371;-77
2022/02/08 19:36:38;;;;;;;;;;;180.00;2252.80;;;;;;5078201;28;20315;-79
2022/02/08 19:39:05;;;;;;;;;;;180.00;2252.80;;;;;;5077575;28;19950;-79
2022/02/08 19:41:31;;;;;;;;;;;179.90;2252.80;;;;;;5077465;28;19954;-81
2022/02/08 19:43:57;;;;;;;;;;;179.90;2252.80;;;;;;5095744;28;19908;-78
2022/02/08 19:46:22;;;;;;;;;;;180.00;2252.80;;;;;;5078047;28;19916;-76
2022/02/08 19:48:48;;;;;;;;;;;180.00;2252.80;;;;;;5096020;28;19931;-78
2022/02/08 19:51:14;;;;;;;;;;;179.90;2252.80;;;;;;5077927;28;19962;-80
2022/02/08 19:53:40;;;;;;;;;;;179.90;2252.80;;;;;;5077968;28;19909;-80
2022/02/08 19:58:46;;;;;;;;;;;179.90;2252.80;;;;;;5096084;28;19935;-77
2022/02/08 20:01:16;;;;;;;;;;;179.90;2252.80;;;;;;5095828;28;19915;-81
2022/02/08 20:04:27;;;;;;;;;;;179.90;2252.80;;;;;;5077788;28;19908;-80
2022/02/08 20:06:28;;;;;;;;;;;179.90;2252.80;;;;;;5081020;28;19920;-80
2022/02/08 20:08:54;;;;;;;;;;;180.10;2252.80;;;;;;5077335;28;20054;-80
2022/02/08 20:11:21;;;;;;;;;;;179.80;2252.80;;;;;;5076976;28;20065;-80
2022/02/08 20:13:51;;;;;;;;;;;179.80;2252.80;;;;;;5076304;28;20292;-74
2022/02/08 20:16:20;;;;;;;;;;;179.80;2252.80;;;;;;5089586;28;19912;-77
2022/02/08 20:18:48;;;;;;;;;;;179.80;2252.80;;;;;;5094875;28;19908;-76
2022/02/08 20:21:14;;;;;;;;;;;179.80;2252.80;;;;;;5076857;28;20331;-77
2022/02/08 20:23:41;;;;;;;;;;;179.80;2252.80;;;;;;5094956;28;19908;-81
2022/02/08 20:26:08;;;;;;;;;;;179.80;2252.80;;;;;;5076493;28;20411;-81
2022/02/08 20:28:47;;;;;;;;;;;180.00;2252.80;;;;;;5075469;28;19964;-80
2022/02/08 20:31:14;;;;;;;;;;;180.00;2252.80;;;;;;5094439;28;19912;-78
2022/02/08 20:33:40;;;;;;;;;;;180.00;2252.80;;;;;;5094783;28;19923;-81
2022/02/08 20:36:06;;;;;;;;;;;179.90;2252.80;;;;;;5094769;28;19908;-78
2022/02/08 20:38:32;;;;;;;;;;;180.10;2252.80;;;;;;5074301;28;19919;-79
2022/02/08 20:40:57;;;;;;;;;;;180.10;2252.80;;;;;;5076048;28;19923;-77
2022/02/08 20:43:23;;;;;;;;;;;180.10;2252.80;;;;;;5094974;28;20304;-79
2022/02/08 20:45:49;;;;;;;;;;;180.10;2252.80;;;;;;5110937;28;19915;-79
2022/02/08 20:48:16;;;;;;;;;;;204.80;2252.80;;;;;;5094862;28;19908;-75
2022/02/08 20:50:41;;;;;;;;;;;204.90;2252.80;;;;;;5077182;28;19933;-76
2022/02/08 20:53:14;;;;;;;;;;;204.90;2252.80;;;;;;5109753;28;19990;-77
2022/02/08 20:55:45;;;;;;;;;;;204.90;2252.80;;;;;;5076667;28;20288;-77
2022/02/08 20:58:18;;;;;;;;;;;204.90;2252.80;;;;;;5076653;28;19915;-80
2022/02/08 21:00:44;;;;;;;;;;;204.90;2252.80;;;;;;5076662;28;19912;-79
2022/02/08 21:03:15;;;;;;;;;;;204.90;2252.80;;;;;;5094776;28;19992;-83
2022/02/08 21:05:58;;;;;;;;;;;204.90;2252.80;;;;;;5076433;28;19915;-88
2022/02/08 21:08:23;;;;;;;;;;;204.90;2252.80;;;;;;5075409;28;19920;-82
2022/02/08 21:10:49;;;;;;;;;;;204.90;2252.80;;;;;;5094712;28;20015;-80
2022/02/08 21:13:18;;;;;;;;;;;204.90;2252.80;;;;;;5109996;28;20379;-89
2022/02/08 21:15:43;;;;;;;;;;;205.00;2252.80;;;;;;5075705;28;19938;-85
2022/02/08 21:18:09;;;;;;;;;;;205.10;2252.80;;;;;;5104263;28;20443;-87
2022/02/08 21:20:35;;;;;;;;;;;205.10;2252.80;;;;;;5076045;28;19908;-86
2022/02/08 21:23:01;;;;;;;;;;;205.00;2252.80;;;;;;5109272;28;19914;-83
2022/02/08 21:25:26;;;;;;;;;;;205.10;2252.80;;;;;;5092582;28;20269;-88
2022/02/08 21:27:59;;;;;;;;;;;205.00;2252.80;;;;;;5075315;28;19915;-86
2022/02/08 21:49:06;;;;;;;;;;;204.90;2252.80;;;;;;5093611;28;19934;-86
2022/02/08 21:51:55;;;;;;;;;;;204.90;2252.80;;;;;;5106835;28;19912;-80
2022/02/08 21:54:28;;;;;;;;;;;204.80;2252.80;;;;;;5092023;28;20379;-81
2022/02/08 21:56:56;;;;;;;;;;;180.10;2252.80;;;;;;5093920;28;20014;-81
2022/02/08 21:59:22;;;;;;;;;;;180.00;2252.80;;;;;;5093969;28;19959;-77
2022/02/08 22:01:48;;;;;;;;;;;180.00;2252.80;;;;;;5093613;28;19937;-81
2022/02/08 22:04:13;;;;;;;;;;;179.90;2252.80;;;;;;5093385;28;19908;-81